createdAt,value
2019-03-28T00:01:45.544Z,75.60
2019-03-28T00:04:29.860Z,76.60
2019-03-28T00:07:14.452Z,77.10
2019-03-28T00:09:59.357Z,77.30
2019-03-28T00:12:44.560Z,76.90
2019-03-28T00:15:29.456Z,75.90
2019-03-28T00:18:15.028Z,75.00
2019-03-28T00:21:08.816Z,75.60
2019-03-28T00:27:12.692Z,76.50
2019-03-28T00:29:57.260Z,77.40
2019-03-28T00:32:41.788Z,77.40
2019-03-28T00:35:35.233Z,76.90
2019-03-28T00:38:19.857Z,76.90
2019-03-28T00:41:04.676Z,77.10
2019-03-28T00:43:49.048Z,77.20
2019-03-28T00:46:33.688Z,76.30
2019-03-28T00:49:18.624Z,77.40
2019-03-28T00:52:03.869Z,78.10
2019-03-28T00:54:48.895Z,78.70
2019-03-28T00:57:34.096Z,78.90
2019-03-28T01:00:28.108Z,79.20
2019-03-28T01:03:21.896Z,79.00
2019-03-28T01:06:07.362Z,78.70
2019-03-28T01:08:52.697Z,78.80
2019-03-28T01:11:49.366Z,78.80
2019-03-28T01:14:33.787Z,78.70
2019-03-28T01:17:18.768Z,78.70
2019-03-28T01:20:03.882Z,78.70
2019-03-28T01:22:50.073Z,79.70
2019-03-28T01:25:34.951Z,80.00
2019-03-28T01:28:19.949Z,80.30
2019-03-28T01:31:14.311Z,80.40
2019-03-28T01:34:08.121Z,80.00
2019-03-28T01:36:52.815Z,80.40
2019-03-28T01:39:37.253Z,79.60
2019-03-28T01:42:22.252Z,79.60
2019-03-28T01:45:08.259Z,79.50
2019-03-28T01:47:53.301Z,80.30
2019-03-28T01:50:38.032Z,80.40
2019-03-28T01:53:22.414Z,80.40
2019-03-28T01:56:07.259Z,80.90
2019-03-28T01:58:51.972Z,81.00
2019-03-28T02:01:36.766Z,80.80
2019-03-28T02:04:19.938Z,80.60
2019-03-28T02:07:12.703Z,80.40
2019-03-28T02:09:57.301Z,80.40
2019-03-28T02:12:42.974Z,80.40
2019-03-28T02:15:27.602Z,80.40
2019-03-28T02:18:12.243Z,80.40
2019-03-28T02:21:09.435Z,80.40
2019-03-28T02:23:52.679Z,80.30
2019-03-28T02:26:37.275Z,80.70
2019-03-28T02:29:22.102Z,81.30
2019-03-28T02:32:07.053Z,81.60
2019-03-28T02:34:51.784Z,81.60
2019-03-28T02:37:36.817Z,81.70
2019-03-28T02:40:21.419Z,81.80
2019-03-28T02:43:05.671Z,81.40
2019-03-28T02:45:58.963Z,81.40
2019-03-28T02:48:43.679Z,81.30
2019-03-28T02:51:28.471Z,81.20
2019-03-28T02:54:22.907Z,80.50
2019-03-28T02:57:07.866Z,81.00
2019-03-28T03:00:01.611Z,81.20
2019-03-28T03:02:46.176Z,81.50
2019-03-28T03:05:30.813Z,81.30
2019-03-28T03:08:25.575Z,81.30
2019-03-28T03:11:10.165Z,81.30
2019-03-28T03:13:55.355Z,81.20
2019-03-28T03:16:39.792Z,81.00
2019-03-28T03:19:25.760Z,81.10
2019-03-28T03:22:10.286Z,81.30
2019-03-28T03:25:03.362Z,81.20
2019-03-28T03:27:57.725Z,80.30
2019-03-28T03:30:34.052Z,79.80
2019-03-28T03:33:27.165Z,80.00
2019-03-28T03:36:11.421Z,80.60
2019-03-28T03:38:56.864Z,80.40
2019-03-28T03:41:41.201Z,80.60
2019-03-28T03:44:26.226Z,80.40
2019-03-28T03:47:10.755Z,80.30
2019-03-28T03:49:56.428Z,80.30
2019-03-28T03:52:50.359Z,81.10
2019-03-28T03:55:35.031Z,81.20
2019-03-28T03:58:19.687Z,81.40
2019-03-28T04:01:04.516Z,82.50
2019-03-28T04:03:48.989Z,83.50
2019-03-28T04:06:34.085Z,84.10
2019-03-28T04:09:18.986Z,84.10
2019-03-28T04:12:04.196Z,84.40
2019-03-28T04:14:49.209Z,84.30
2019-03-28T04:17:42.781Z,83.90
2019-03-28T04:20:27.535Z,83.60
2019-03-28T04:23:12.361Z,83.30
2019-03-28T04:25:56.928Z,82.40
2019-03-28T04:28:41.635Z,82.50
2019-03-28T04:31:26.033Z,82.90
2019-03-28T04:34:19.343Z,83.00
2019-03-28T04:37:03.433Z,83.30
2019-03-28T04:39:56.759Z,84.50
2019-03-28T04:42:45.444Z,85.10
2019-03-28T04:45:28.774Z,84.90
2019-03-28T04:48:22.071Z,84.90
2019-03-28T04:51:06.902Z,84.50
2019-03-28T04:53:51.334Z,84.50
2019-03-28T04:56:36.128Z,84.10
2019-03-28T04:59:20.283Z,83.70
2019-03-28T05:02:14.677Z,83.20
2019-03-28T05:05:08.134Z,83.10
2019-03-28T05:07:52.883Z,83.00
2019-03-28T05:10:37.621Z,83.30
2019-03-28T05:13:22.252Z,83.20
2019-03-28T05:16:06.827Z,82.60
2019-03-28T05:18:52.039Z,82.40
2019-03-28T05:21:36.798Z,82.40
2019-03-28T05:24:21.275Z,82.40
2019-03-28T05:27:05.692Z,82.40
2019-03-28T05:29:49.991Z,82.40
2019-03-28T05:32:35.191Z,82.60
2019-03-28T05:35:28.491Z,82.90
2019-03-28T05:38:12.947Z,83.10
2019-03-28T05:40:57.643Z,83.20
2019-03-28T05:43:52.892Z,82.80
2019-03-28T05:46:46.924Z,83.40
2019-03-28T05:49:40.693Z,84.00
2019-03-28T05:52:26.283Z,84.60
2019-03-28T05:55:10.724Z,85.30
2019-03-28T05:58:04.318Z,86.00
2019-03-28T06:00:51.308Z,85.80
2019-03-28T06:03:34.812Z,85.20
2019-03-28T06:06:19.587Z,84.60
2019-03-28T06:09:12.624Z,84.30
2019-03-28T06:11:57.127Z,84.40
2019-03-28T06:14:51.810Z,84.50
2019-03-28T06:17:36.850Z,84.10
2019-03-28T06:20:21.127Z,83.80
2019-03-28T06:23:05.715Z,83.40
2019-03-28T06:25:50.576Z,83.20
2019-03-28T06:28:34.912Z,82.80
2019-03-28T06:31:28.638Z,82.60
2019-03-28T06:34:13.699Z,82.80
2019-03-28T06:37:07.327Z,82.60
2019-03-28T06:39:52.068Z,82.10
2019-03-28T06:42:37.608Z,81.70
2019-03-28T06:45:30.559Z,81.00
2019-03-28T06:48:15.460Z,80.50
2019-03-28T06:51:00.330Z,79.80
2019-03-28T06:53:44.886Z,79.70
2019-03-28T06:56:29.854Z,79.30
2019-03-28T06:59:14.459Z,79.10
2019-03-28T07:01:59.586Z,78.60
2019-03-28T07:04:44.367Z,78.10
2019-03-28T07:07:29.455Z,78.00
2019-03-28T07:10:14.039Z,77.90
2019-03-28T07:12:58.710Z,77.50
2019-03-28T07:15:43.331Z,77.20
2019-03-28T07:18:28.107Z,76.90
2019-03-28T07:21:22.732Z,76.80
2019-03-28T07:24:08.043Z,75.90
2019-03-28T07:27:01.692Z,74.90
2019-03-28T07:29:51.208Z,73.60
2019-03-28T07:32:32.629Z,72.90
2019-03-28T07:35:17.421Z,73.50
2019-03-28T07:38:01.960Z,71.80
2019-03-28T07:40:46.711Z,70.20
2019-03-28T07:43:31.811Z,70.30
2019-03-28T07:46:16.563Z,69.60
2019-03-28T07:49:00.905Z,67.90
2019-03-28T07:51:45.200Z,66.80
2019-03-28T07:54:39.357Z,66.30
2019-03-28T07:57:33.086Z,65.70
2019-03-28T08:00:18.219Z,65.00
2019-03-28T08:03:12.579Z,65.10
2019-03-28T08:06:06.052Z,64.60
2019-03-28T08:08:50.700Z,64.00
2019-03-28T08:11:35.208Z,63.40
2019-03-28T08:14:20.483Z,63.10
2019-03-28T08:17:05.285Z,62.30
2019-03-28T08:19:50.060Z,63.00
2019-03-28T08:22:34.887Z,63.10
2019-03-28T08:25:19.803Z,62.20
2019-03-28T08:28:04.528Z,61.00
2019-03-28T08:30:49.308Z,59.20
2019-03-28T08:33:33.892Z,58.80
2019-03-28T08:36:18.223Z,58.20
2019-03-28T08:39:03.224Z,58.20
2019-03-28T08:41:58.191Z,58.20
2019-03-28T08:44:52.687Z,58.00
2019-03-28T08:47:37.740Z,57.40
2019-03-28T08:50:22.187Z,57.40
2019-03-28T08:53:15.603Z,56.90
2019-03-28T08:56:00.557Z,56.70
2019-03-28T08:58:44.722Z,56.80
2019-03-28T09:01:29.687Z,57.00
2019-03-28T09:04:14.287Z,56.40
2019-03-28T09:06:58.716Z,55.40
2019-03-28T09:09:52.243Z,54.60
2019-03-28T09:12:36.823Z,54.10
2019-03-28T09:15:21.127Z,53.30
2019-03-28T09:18:14.440Z,52.70
2019-03-28T09:20:59.387Z,52.10
2019-03-28T09:23:43.835Z,52.20
2019-03-28T09:26:28.595Z,51.40
2019-03-28T09:29:13.623Z,51.10
2019-03-28T09:31:58.075Z,50.40
2019-03-28T09:34:43.246Z,50.30
2019-03-28T09:37:27.971Z,50.10
2019-03-28T09:40:12.657Z,50.00
2019-03-28T09:42:57.811Z,49.20
2019-03-28T09:45:42.315Z,48.60
2019-03-28T09:48:26.799Z,48.10
2019-03-28T09:51:11.383Z,47.70
2019-03-28T09:53:56.183Z,47.60
2019-03-28T09:56:40.624Z,47.50
2019-03-28T09:59:33.824Z,46.90
2019-03-28T10:02:18.303Z,46.30
2019-03-28T10:05:03.053Z,45.80
2019-03-28T10:07:47.431Z,46.00
2019-03-28T10:11:01.011Z,45.60
2019-03-28T10:13:45.763Z,44.60
2019-03-28T10:16:30.454Z,44.60
2019-03-28T10:19:15.178Z,43.90
2019-03-28T10:21:59.396Z,44.00
2019-03-28T10:24:53.156Z,44.00
2019-03-28T10:27:38.283Z,44.20
2019-03-28T10:30:32.069Z,44.30
2019-03-28T10:33:16.555Z,44.10
2019-03-28T10:36:00.954Z,43.30
2019-03-28T10:38:45.706Z,43.20
2019-03-28T10:41:30.790Z,42.60
2019-03-28T10:44:15.204Z,42.20
2019-03-28T10:46:59.698Z,42.30
2019-03-28T10:49:53.623Z,41.70
2019-03-28T10:52:47.247Z,41.80
2019-03-28T10:55:32.122Z,41.90
2019-03-28T10:58:19.352Z,41.20
2019-03-28T11:01:12.868Z,40.70
2019-03-28T11:03:57.505Z,40.30
2019-03-28T11:06:41.735Z,39.70
2019-03-28T11:09:26.531Z,38.80
2019-03-28T11:12:12.807Z,38.60
2019-03-28T11:14:57.430Z,38.60
2019-03-28T11:17:50.762Z,38.60
2019-03-28T11:20:36.089Z,38.70
2019-03-28T11:23:21.964Z,38.60
2019-03-28T11:26:06.719Z,38.10
2019-03-28T11:28:51.460Z,37.70
2019-03-28T11:31:46.109Z,37.50
2019-03-28T11:34:22.832Z,36.80
2019-03-28T11:37:09.719Z,35.80
2019-03-28T11:39:53.168Z,35.50
2019-03-28T11:42:46.631Z,35.50
2019-03-28T11:45:31.419Z,35.10
2019-03-28T11:48:16.397Z,33.80
2019-03-28T11:51:01.645Z,33.50
2019-03-28T11:53:55.503Z,34.10
2019-03-28T11:56:49.567Z,34.40
2019-03-28T11:59:33.891Z,34.40
2019-03-28T12:02:20.540Z,34.30
2019-03-28T12:05:04.771Z,33.30
2019-03-28T12:07:49.521Z,32.80
2019-03-28T12:10:34.540Z,33.20
2019-03-28T12:13:19.687Z,32.80
2019-03-28T12:16:04.683Z,32.50
2019-03-28T12:18:49.184Z,32.60
2019-03-28T12:21:33.663Z,32.20
2019-03-28T12:24:18.419Z,32.80
2019-03-28T12:27:02.835Z,32.80
2019-03-28T12:29:56.332Z,33.40
2019-03-28T12:32:41.431Z,34.40
2019-03-28T12:35:35.058Z,34.80
2019-03-28T12:38:19.545Z,34.30
2019-03-28T12:41:04.459Z,34.60
2019-03-28T12:43:48.994Z,34.90
2019-03-28T12:46:33.983Z,35.50
2019-03-28T12:49:18.694Z,36.20
2019-03-28T12:52:02.980Z,36.30
2019-03-28T12:54:56.559Z,36.70
2019-03-28T12:57:42.810Z,37.30
2019-03-28T13:00:27.643Z,37.60
2019-03-28T13:03:12.347Z,38.20
2019-03-28T13:05:57.356Z,38.90
2019-03-28T13:08:42.071Z,38.40
2019-03-28T13:11:27.748Z,38.40
2019-03-28T13:14:21.543Z,38.70
2019-03-28T13:17:15.335Z,39.00
2019-03-28T13:19:59.935Z,39.10
2019-03-28T13:22:44.941Z,39.00
2019-03-28T13:25:30.135Z,39.00
2019-03-28T13:28:24.389Z,39.30
2019-03-28T13:31:17.403Z,39.70
2019-03-28T13:34:03.467Z,39.90
2019-03-28T13:36:56.956Z,40.00
2019-03-28T13:39:42.203Z,40.30
2019-03-28T13:42:35.706Z,41.00
2019-03-28T13:45:20.491Z,41.70
2019-03-28T13:48:04.962Z,42.00
2019-03-28T13:50:49.497Z,41.80
2019-03-28T13:53:39.678Z,41.80
2019-03-28T13:56:29.068Z,41.10
2019-03-28T13:59:13.971Z,41.50
2019-03-28T14:01:58.527Z,41.70
2019-03-28T14:04:43.493Z,42.30
2019-03-28T14:07:28.090Z,42.50
2019-03-28T14:10:12.827Z,42.70
2019-03-28T14:12:57.348Z,42.90
2019-03-28T14:15:42.199Z,43.40
2019-03-28T14:18:27.362Z,43.40
2019-03-28T14:21:12.244Z,43.10
2019-03-28T14:23:56.611Z,43.20
2019-03-28T14:26:41.490Z,42.80
2019-03-28T14:29:26.208Z,42.50
2019-03-28T14:32:11.039Z,42.70
2019-03-28T14:34:55.886Z,42.50
2019-03-28T14:37:40.854Z,42.40
2019-03-28T14:40:25.679Z,42.20
2019-03-28T14:43:10.947Z,42.00
2019-03-28T14:45:55.195Z,41.50
2019-03-28T14:48:39.936Z,41.30
2019-03-28T14:51:25.159Z,41.60
2019-03-28T14:54:09.507Z,42.10
2019-03-28T14:56:53.652Z,42.60
2019-03-28T14:59:47.472Z,43.20
2019-03-28T15:02:32.401Z,43.50
2019-03-28T15:05:26.191Z,43.80
2019-03-28T15:08:10.375Z,44.10
2019-03-28T15:10:55.019Z,44.30
2019-03-28T15:13:48.464Z,44.80
2019-03-28T15:16:33.571Z,45.00
2019-03-28T15:19:27.153Z,45.20
2019-03-28T15:22:12.195Z,45.60
2019-03-28T15:24:57.705Z,46.20
2019-03-28T15:27:42.663Z,46.80
2019-03-28T15:30:27.442Z,47.20
2019-03-28T15:33:12.123Z,47.70
2019-03-28T15:35:56.980Z,47.80
2019-03-28T15:38:41.537Z,47.60
2019-03-28T15:41:35.211Z,47.40
2019-03-28T15:44:19.849Z,47.60
2019-03-28T15:47:04.824Z,47.50
2019-03-28T15:49:49.659Z,47.90
2019-03-28T15:52:34.533Z,47.90
2019-03-28T15:55:19.182Z,48.00
2019-03-28T15:58:04.029Z,48.00
2019-03-28T16:00:48.797Z,48.00
2019-03-28T16:03:32.928Z,47.90
2019-03-28T16:06:17.614Z,48.00
2019-03-28T16:09:02.099Z,48.20
2019-03-28T16:12:02.735Z,48.60
2019-03-28T16:14:42.595Z,48.70
2019-03-28T16:17:36.269Z,48.60
2019-03-28T16:20:21.107Z,48.70
2019-03-28T16:23:06.027Z,48.30
2019-03-28T16:25:59.772Z,48.50
2019-03-28T16:28:44.435Z,48.70
2019-03-28T16:31:28.646Z,48.80
2019-03-28T16:34:21.504Z,48.70
2019-03-28T16:37:06.420Z,49.00
2019-03-28T16:39:51.173Z,49.10
2019-03-28T16:42:36.085Z,49.30
2019-03-28T16:45:21.107Z,49.60
2019-03-28T16:48:05.575Z,49.90
2019-03-28T16:50:50.599Z,50.10
2019-03-28T16:53:35.726Z,50.20
2019-03-28T16:56:29.812Z,50.30
2019-03-28T16:59:14.776Z,50.60
2019-03-28T17:01:59.279Z,50.60
2019-03-28T17:04:43.915Z,50.90
2019-03-28T17:07:29.188Z,51.20
2019-03-28T17:10:14.158Z,51.40
2019-03-28T17:13:07.736Z,51.90
2019-03-28T17:15:52.703Z,51.90
2019-03-28T17:18:37.711Z,52.20
2019-03-28T17:21:23.440Z,52.40
2019-03-28T17:24:08.439Z,52.70
2019-03-28T17:26:53.309Z,52.90
2019-03-28T17:29:47.460Z,53.20
2019-03-28T17:32:31.919Z,53.40
2019-03-28T17:35:16.616Z,53.70
2019-03-28T17:38:01.083Z,53.80
2019-03-28T17:40:54.501Z,54.00
2019-03-28T17:43:39.211Z,54.10
2019-03-28T17:46:22.652Z,54.30
2019-03-28T17:49:14.763Z,54.40
2019-03-28T17:51:59.659Z,54.60
2019-03-28T17:54:44.407Z,54.80
2019-03-28T17:57:29.075Z,55.00
2019-03-28T18:00:13.743Z,55.10
2019-03-28T18:03:09.458Z,55.30
2019-03-28T18:05:58.470Z,55.40
2019-03-28T18:08:40.147Z,55.60
2019-03-28T18:11:25.246Z,55.80
2019-03-28T18:14:21.800Z,56.00
2019-03-28T18:17:06.754Z,56.00
2019-03-28T18:19:51.727Z,56.20
2019-03-28T18:22:45.252Z,56.30
2019-03-28T18:25:39.543Z,56.60
2019-03-28T18:28:24.327Z,56.60
2019-03-28T18:31:08.730Z,56.70
2019-03-28T18:33:53.783Z,56.60
2019-03-28T18:36:38.436Z,56.80
2019-03-28T18:39:23.281Z,56.70
2019-03-28T18:42:07.926Z,56.90
2019-03-28T18:44:52.983Z,56.90
2019-03-28T18:47:37.712Z,57.10
2019-03-28T18:50:22.086Z,57.20
2019-03-28T18:53:06.668Z,57.10
2019-03-28T18:56:00.461Z,57.30
2019-03-28T18:58:54.807Z,57.60
2019-03-28T19:01:48.667Z,57.60
2019-03-28T19:04:33.627Z,57.70
2019-03-28T19:07:27.348Z,57.70
2019-03-28T19:10:12.091Z,57.80
2019-03-28T19:12:57.154Z,57.90
2019-03-28T19:15:42.163Z,58.00
2019-03-28T19:18:35.723Z,57.90
2019-03-28T19:21:20.807Z,58.10
2019-03-28T19:24:05.319Z,58.30
2019-03-28T19:26:50.206Z,58.50
2019-03-28T19:29:34.708Z,58.60
2019-03-28T19:32:19.379Z,58.70
2019-03-28T19:35:04.345Z,58.70
2019-03-28T19:37:50.543Z,58.90
2019-03-28T19:40:35.659Z,59.10
2019-03-28T19:43:22.656Z,59.20
2019-03-28T19:46:06.198Z,59.20
2019-03-28T19:48:59.650Z,59.20
2019-03-28T19:51:47.420Z,59.40
2019-03-28T19:54:30.979Z,59.80
2019-03-28T19:57:14.639Z,60.10
2019-03-28T20:00:07.885Z,60.10
2019-03-28T20:02:52.907Z,60.10
2019-03-28T20:05:47.504Z,60.00
2019-03-28T20:08:26.115Z,60.20
2019-03-28T20:11:11.228Z,60.50
2019-03-28T20:14:04.457Z,60.60
2019-03-28T20:16:49.040Z,60.60
2019-03-28T20:19:33.819Z,60.60
2019-03-28T20:22:18.373Z,60.60
2019-03-28T20:25:03.105Z,60.70
2019-03-28T20:27:47.767Z,60.60
2019-03-28T20:30:41.262Z,60.90
2019-03-28T20:33:25.849Z,60.80
2019-03-28T20:36:35.547Z,61.00
2019-03-28T20:39:03.767Z,60.80
2019-03-28T20:41:43.053Z,61.20
2019-03-28T20:44:27.866Z,61.00
2019-03-28T20:47:13.332Z,61.00
2019-03-28T20:49:57.841Z,61.20
2019-03-28T20:52:42.988Z,61.40
2019-03-28T20:55:27.098Z,61.30
2019-03-28T20:58:11.419Z,60.90
2019-03-28T21:01:05.771Z,60.80
2019-03-28T21:03:59.367Z,60.90
2019-03-28T21:06:44.187Z,61.70
2019-03-28T21:09:28.835Z,60.90
2019-03-28T21:12:13.683Z,60.80
2019-03-28T21:14:57.853Z,61.00
2019-03-28T21:17:42.810Z,61.10
2019-03-28T21:20:27.712Z,61.00
2019-03-28T21:23:13.003Z,60.90
2019-03-28T21:25:57.888Z,60.90
2019-03-28T21:28:47.293Z,61.10
2019-03-28T21:31:49.336Z,61.70
2019-03-28T21:34:24.711Z,62.10
2019-03-28T21:37:09.491Z,62.70
2019-03-28T21:39:54.623Z,63.00
2019-03-28T21:42:48.492Z,62.80
2019-03-28T21:45:33.106Z,63.00
2019-03-28T21:48:17.843Z,63.10
2019-03-28T21:51:02.960Z,63.20
2019-03-28T21:53:47.767Z,62.80
2019-03-28T21:56:32.847Z,63.00
2019-03-28T21:59:17.840Z,63.10
2019-03-28T22:02:03.654Z,63.10
2019-03-28T22:04:48.800Z,63.00
2019-03-28T22:07:43.000Z,62.80
2019-03-28T22:10:36.719Z,62.70
2019-03-28T22:13:21.278Z,62.60
2019-03-28T22:16:15.427Z,63.00
2019-03-28T22:19:00.124Z,63.00
2019-03-28T22:21:44.679Z,63.30
2019-03-28T22:24:29.042Z,63.20
2019-03-28T22:27:22.527Z,63.50
2019-03-28T22:30:06.687Z,63.70
2019-03-28T22:32:51.175Z,63.70
2019-03-28T22:35:43.386Z,64.30
2019-03-28T22:38:37.474Z,64.60
2019-03-28T22:41:31.371Z,65.40
2019-03-28T22:44:15.938Z,65.70
2019-03-28T22:47:00.833Z,65.90
2019-03-28T22:49:45.327Z,66.00
2019-03-28T22:52:29.925Z,66.30
2019-03-28T22:55:14.378Z,66.40
2019-03-28T22:58:08.079Z,66.40
2019-03-28T23:01:01.883Z,66.50
2019-03-28T23:03:47.247Z,66.60
2019-03-28T23:06:41.495Z,66.60
2019-03-28T23:09:36.091Z,66.80
2019-03-28T23:12:29.575Z,67.10
2019-03-28T23:15:14.043Z,66.90
2019-03-28T23:17:58.874Z,66.70
2019-03-28T23:20:43.700Z,66.50
2019-03-28T23:23:27.927Z,66.60
2019-03-28T23:26:21.718Z,66.50
2019-03-28T23:29:06.859Z,66.80
2019-03-28T23:32:00.256Z,66.60
2019-03-28T23:34:45.131Z,67.00
2019-03-28T23:37:30.122Z,67.40
2019-03-28T23:40:15.314Z,67.30
2019-03-28T23:43:09.819Z,67.00
2019-03-28T23:45:54.511Z,66.80
2019-03-28T23:48:48.000Z,66.90
2019-03-28T23:51:33.119Z,67.10
2019-03-28T23:54:27.008Z,67.20
2019-03-28T23:57:21.140Z,66.90
